Welcome to Northern Hawkes Bay. New Zealand.
PWS Header
      nz Flag



Hit Counter


W3C Valid W3C Valid logo


    Wairoa

Select any of the Stations below to visit their websites.










Historic Data from Weather Underground
Select the location of interest below. Wairoa is the default. Please have patience, this Data is slow to load in.
Northern Hawkes Bay Historical Data
Daily Summary for June 19, 2017 Units:  Metric    English   Both
« Previous Day
Next Day »
Daily Weekly Monthly Yearly Custom
  High: Low: Average:
Temperature: 18.3 °C 9.1 °C 12.5 °C
Dew Point: 12.7 °C 8.9 °C 10.5 °C
Humidity: 99% 62% 88%
Wind Speed: 17.2km/h 0.0km/h 5.4km/h
Wind Gust: 28.0km/h - -
Wind- - SW
Pressure: 1031.4 hPa 1026.3 hPa -
Precipitation: 0.5 mm    
Historical Graphs
 
 
Tabular Data for June 19, 2017
Time Temperature Dew Point Pressure Wind Wind Speed Wind Gust Humidity Rainfall Rate (Hourly) solar
00:00 17.6 °C 10.2 °C 1026.3 hPa NW 2.6 km/h 6.1 km/h 62% 0.0 mm 36 W/m2
00:05 17.4 °C 10.3 °C 1026.3 hPa NW 2.6 km/h 6.1 km/h 63% 0.0 mm 43 W/m2
00:10 17.1 °C 10.0 °C 1026.3 hPa NNW 1.1 km/h 5.0 km/h 63% 0.0 mm 32 W/m2
00:15 16.8 °C 10.2 °C 1026.3 hPa NNW 1.1 km/h 5.0 km/h 65% 0.0 mm 18 W/m2
00:20 16.3 °C 9.9 °C 1026.3 hPa NNW 2.6 km/h 3.5 km/h 66% 0.0 mm 13 W/m2
00:25 15.7 °C 10.1 °C 1026.6 hPa Calm   3.5 km/h 69% 0.0 mm 10 W/m2
00:30 15.3 °C 10.1 °C 1026.6 hPa Calm   3.5 km/h 71% 0.0 mm 7 W/m2
00:35 14.9 °C 10.1 °C 1026.6 hPa NW 1.1 km/h 2.6 km/h 73% 0.0 mm 5 W/m2
00:40 14.5 °C 10.1 °C 1026.6 hPa NW 1.1 km/h 3.5 km/h 75% 0.0 mm 3 W/m2
00:45 14.1 °C 9.9 °C 1027.0 hPa NW 1.1 km/h 3.5 km/h 76% 0.0 mm 1 W/m2
00:50 13.8 °C 10.2 °C 1026.6 hPa NNW 2.6 km/h 3.5 km/h 79% 0.0 mm 0 W/m2
00:55 13.7 °C 10.3 °C 1026.6 hPa NW 1.1 km/h 3.5 km/h 80% 0.0 mm 0 W/m2
01:00 13.4 °C 10.2 °C 1027.0 hPa NNW 1.1 km/h 3.5 km/h 81% 0.0 mm 0 W/m2
01:05 13.0 °C 10.0 °C 1027.0 hPa North 1.1 km/h 3.5 km/h 82% 0.0 mm 0 W/m2
01:10 12.6 °C 9.8 °C 1027.0 hPa North 1.1 km/h 3.5 km/h 83% 0.0 mm 0 W/m2
01:15 12.3 °C 9.7 °C 1027.0 hPa Calm   3.5 km/h 84% 0.0 mm 0 W/m2
01:20 12.1 °C 9.5 °C 1027.0 hPa Calm   3.5 km/h 84% 0.0 mm 0 W/m2
01:25 11.8 °C 9.6 °C 1027.0 hPa NNE 1.1 km/h 2.6 km/h 86% 0.0 mm 0 W/m2
01:30 11.6 °C 9.5 °C 1027.3 hPa NNE 2.6 km/h 3.5 km/h 87% 0.0 mm 0 W/m2
01:35 11.5 °C 9.6 °C 1027.3 hPa NNE 2.6 km/h 3.5 km/h 88% 0.0 mm 0 W/m2
01:40 11.3 °C 9.6 °C 1027.3 hPa North 2.6 km/h 3.5 km/h 89% 0.0 mm 0 W/m2
01:45 11.3 °C 9.7 °C 1027.7 hPa North 1.1 km/h 3.5 km/h 90% 0.0 mm 0 W/m2
01:50 11.3 °C 9.7 °C 1027.7 hPa Calm   3.5 km/h 90% 0.0 mm 0 W/m2
01:55 11.1 °C 9.7 °C 1027.7 hPa NNE 1.1 km/h 3.5 km/h 91% 0.0 mm 0 W/m2
02:00 11.0 °C 9.6 °C 1027.7 hPa Calm   3.5 km/h 91% 0.0 mm 0 W/m2
02:17 10.7 °C 9.6 °C 1028.0 hPa Calm   3.5 km/h 93% 0.0 mm 0 W/m2
02:22 10.6 °C 9.5 °C 1028.3 hPa NNE 1.1 km/h 3.5 km/h 93% 0.0 mm 0 W/m2
02:27 10.6 °C 9.7 °C 1028.3 hPa NNE 2.6 km/h 3.5 km/h 94% 0.0 mm 0 W/m2
02:32 10.5 °C 9.6 °C 1028.3 hPa Calm   3.5 km/h 94% 0.0 mm 0 W/m2
02:37 10.3 °C 9.4 °C 1028.7 hPa NNW 2.6 km/h 3.5 km/h 94% 0.0 mm 0 W/m2
02:42 10.2 °C 9.3 °C 1028.3 hPa North 2.6 km/h 3.5 km/h 94% 0.0 mm 0 W/m2
02:47 10.1 °C 9.3 °C 1028.3 hPa North 2.6 km/h 5.0 km/h 95% 0.0 mm 0 W/m2
02:52 10.0 °C 9.2 °C 1028.7 hPa North 2.6 km/h 5.0 km/h 95% 0.0 mm 0 W/m2
02:57 9.9 °C 9.4 °C 1028.7 hPa North 1.1 km/h 5.0 km/h 97% 0.0 mm 0 W/m2
03:02 9.8 °C 9.5 °C 1028.3 hPa NNW 2.6 km/h 5.0 km/h 98% 0.0 mm 0 W/m2
03:07 9.8 °C 9.5 °C 1028.3 hPa NNW 2.6 km/h 5.0 km/h 98% 0.0 mm 0 W/m2
03:12 9.7 °C 9.6 °C 1028.7 hPa North 2.6 km/h 5.0 km/h 99% 0.0 mm 0 W/m2
03:17 9.4 °C 9.3 °C 1028.7 hPa North 1.1 km/h 5.0 km/h 99% 0.0 mm 0 W/m2
03:22 9.4 °C 9.3 °C 1028.7 hPa NNW 2.6 km/h 3.5 km/h 99% 0.0 mm 0 W/m2
03:27 9.2 °C 9.1 °C 1028.7 hPa North 2.6 km/h 3.5 km/h 99% 0.0 mm 0 W/m2
03:32 9.1 °C 8.9 °C 1028.7 hPa NNE 2.6 km/h 3.5 km/h 99% 0.0 mm 0 W/m2
03:37 9.2 °C 9.1 °C 1028.7 hPa North 1.1 km/h 3.5 km/h 99% 0.0 mm 0 W/m2
03:42 9.4 °C 9.3 °C 1029.0 hPa North 2.6 km/h 3.5 km/h 99% 0.0 mm 0 W/m2
03:47 9.4 °C 9.3 °C 1029.0 hPa North 3.5 km/h 5.0 km/h 99% 0.0 mm 0 W/m2
03:52 10.0 °C 9.8 °C 1029.0 hPa NNW 5.0 km/h 11.1 km/h 99% 0.0 mm 0 W/m2
03:58 11.4 °C 11.1 °C 1029.0 hPa SW 8.7 km/h 18.3 km/h 98% 0.0 mm 0 W/m2
04:03 12.4 °C 11.9 °C 1029.0 hPa SSW 8.7 km/h 19.5 km/h 97% 0.0 mm 0 W/m2
04:08 12.8 °C 12.3 °C 1029.0 hPa South 12.2 km/h 19.5 km/h 97% 0.0 mm 0 W/m2
04:13 13.0 °C 12.6 °C 1029.0 hPa South 9.7 km/h 20.9 km/h 97% 0.0 mm 0 W/m2
04:18 13.1 °C 12.3 °C 1029.3 hPa South 8.7 km/h 20.9 km/h 95% 0.0 mm 0 W/m2
04:23 13.0 °C 12.1 °C 1029.0 hPa South 7.2 km/h 18.3 km/h 94% 0.0 mm 0 W/m2
04:28 13.0 °C 11.7 °C 1029.0 hPa South 15.8 km/h 21.9 km/h 92% 0.0 mm 0 W/m2
04:33 13.0 °C 11.6 °C 1029.3 hPa SSW 13.4 km/h 21.9 km/h 91% 0.0 mm 0 W/m2
04:38 13.0 °C 11.6 °C 1029.3 hPa SSW 8.7 km/h 21.9 km/h 91% 0.0 mm 0 W/m2
04:43 12.8 °C 11.4 °C 1029.3 hPa SSW 13.4 km/h 24.5 km/h 91% 0.0 mm 0 W/m2
04:48 12.9 °C 11.3 °C 1029.7 hPa SSW 14.8 km/h 28.0 km/h 90% 0.0 mm 0 W/m2
04:53 12.9 °C 11.1 °C 1029.7 hPa South 9.7 km/h 28.0 km/h 89% 0.0 mm 0 W/m2
04:58 12.9 °C 11.3 °C 1029.7 hPa South 14.8 km/h 28.0 km/h 90% 0.0 mm 0 W/m2
05:03 12.9 °C 11.4 °C 1029.7 hPa SSW 13.4 km/h 23.3 km/h 91% 0.0 mm 0 W/m2
05:08 13.0 °C 11.4 °C 1029.7 hPa SSW 9.7 km/h 23.3 km/h 90% 0.0 mm 0 W/m2
05:13 13.0 °C 11.4 °C 1029.7 hPa SSW 11.1 km/h 21.9 km/h 90% 0.0 mm 0 W/m2
05:18 13.0 °C 11.6 °C 1029.7 hPa SSW 9.7 km/h 18.3 km/h 91% 0.0 mm 0 W/m2
05:23 12.9 °C 11.6 °C 1030.0 hPa SSW 11.1 km/h 23.3 km/h 92% 0.0 mm 0 W/m2
05:28 12.9 °C 11.4 °C 1030.0 hPa SSW 9.7 km/h 23.3 km/h 91% 0.0 mm 0 W/m2
05:33 12.9 °C 11.4 °C 1030.0 hPa SSW 8.7 km/h 18.3 km/h 91% 0.0 mm 0 W/m2
05:38 12.9 °C 11.4 °C 1030.0 hPa SSW 8.7 km/h 19.5 km/h 91% 0.0 mm 0 W/m2
05:43 12.9 °C 11.4 °C 1030.0 hPa SW 13.4 km/h 19.5 km/h 91% 0.0 mm 0 W/m2
05:48 12.8 °C 11.2 °C 1030.0 hPa SW 13.4 km/h 19.5 km/h 90% 0.0 mm 0 W/m2
05:53 12.8 °C 11.2 °C 1030.0 hPa SSW 13.4 km/h 21.9 km/h 90% 0.0 mm 0 W/m2
05:58 12.8 °C 11.2 °C 1030.0 hPa SW 13.4 km/h 23.3 km/h 90% 0.0 mm 0 W/m2
06:03 12.7 °C 10.9 °C 1030.0 hPa SW 12.2 km/h 24.5 km/h 89% 0.0 mm 0 W/m2
06:08 12.7 °C 10.9 °C 1030.0 hPa SW 14.8 km/h 24.5 km/h 89% 0.0 mm 0 W/m2
06:13 12.7 °C 10.9 °C 1029.7 hPa SW 13.4 km/h 23.3 km/h 89% 0.0 mm 0 W/m2
06:18 12.6 °C 10.8 °C 1030.0 hPa SW 13.4 km/h 24.5 km/h 89% 0.0 mm 0 W/m2
06:23 12.6 °C 10.8 °C 1030.0 hPa SW 12.2 km/h 24.5 km/h 89% 0.0 mm 0 W/m2
06:28 12.6 °C 10.8 °C 1030.0 hPa SW 15.8 km/h 25.6 km/h 89% 0.0 mm 0 W/m2
06:33 12.6 °C 10.7 °C 1030.0 hPa SW 12.2 km/h 25.6 km/h 88% 0.0 mm 0 W/m2
06:38 12.6 °C 10.8 °C 1030.0 hPa SW 13.4 km/h 23.3 km/h 89% 0.0 mm 0 W/m2
06:43 12.6 °C 10.8 °C 1030.0 hPa SW 15.8 km/h 27.0 km/h 89% 0.0 mm 0 W/m2
06:48 12.6 °C 10.8 °C 1029.7 hPa SW 17.2 km/h 27.0 km/h 89% 0.0 mm 0 W/m2
06:53 12.7 °C 10.6 °C 1030.0 hPa SW 13.4 km/h 28.0 km/h 87% 0.0 mm 0 W/m2
06:58 12.7 °C 10.6 °C 1030.0 hPa SW 13.4 km/h 28.0 km/h 87% 0.0 mm 0 W/m2
07:03 12.5 °C 10.2 °C 1030.0 hPa SW 11.1 km/h 28.0 km/h 86% 0.0 mm 0 W/m2
07:08 12.4 °C 9.9 °C 1030.0 hPa WSW 11.1 km/h 21.9 km/h 85% 0.0 mm 0 W/m2
07:13 12.4 °C 9.9 °C 1030.0 hPa West 9.7 km/h 20.9 km/h 85% 0.0 mm 0 W/m2
07:18 12.4 °C 9.8 °C 1030.0 hPa WSW 11.1 km/h 20.9 km/h 84% 0.0 mm 0 W/m2
07:23 12.3 °C 9.7 °C 1030.0 hPa WSW 9.7 km/h 20.9 km/h 84% 0.0 mm 0 W/m2
07:28 12.3 °C 9.7 °C 1030.0 hPa WSW 8.7 km/h 19.5 km/h 84% 0.0 mm 0 W/m2
07:33 12.3 °C 9.7 °C 1030.4 hPa WSW 9.7 km/h 24.5 km/h 84% 0.0 mm 0 W/m2
07:38 12.2 °C 9.6 °C 1030.0 hPa West 7.2 km/h 24.5 km/h 84% 0.0 mm 0 W/m2
07:43 12.2 °C 9.6 °C 1030.0 hPa WSW 13.4 km/h 18.3 km/h 84% 0.0 mm 0 W/m2
07:48 12.2 °C 9.6 °C 1030.0 hPa WSW 9.7 km/h 18.3 km/h 84% 0.0 mm 0 W/m2
07:53 12.2 °C 9.6 °C 1030.0 hPa WSW 8.7 km/h 18.3 km/h 84% 0.0 mm 0 W/m2
07:58 12.2 °C 9.6 °C 1030.4 hPa WSW 2.6 km/h 15.8 km/h 84% 0.0 mm 0 W/m2
08:03 12.1 °C 9.5 °C 1030.0 hPa WSW 8.7 km/h 15.8 km/h 84% 0.0 mm 0 W/m2
08:08 12.1 °C 9.5 °C 1030.0 hPa WSW 5.0 km/h 17.2 km/h 84% 0.0 mm 0 W/m2
08:13 12.1 °C 9.5 °C 1030.4 hPa WSW 3.5 km/h 17.2 km/h 84% 0.0 mm 0 W/m2
08:18 12.1 °C 9.7 °C 1030.4 hPa WSW 7.2 km/h 18.3 km/h 85% 0.0 mm 0 W/m2
08:23 12.1 °C 9.7 °C 1030.0 hPa West 7.2 km/h 18.3 km/h 85% 0.0 mm 0 W/m2
08:28 12.1 °C 9.7 °C 1030.4 hPa West 7.2 km/h 17.2 km/h 85% 0.0 mm 0 W/m2
08:33 12.1 °C 9.7 °C 1030.0 hPa West 3.5 km/h 17.2 km/h 85% 0.0 mm 0 W/m2
08:38 12.1 °C 9.7 °C 1030.0 hPa West 7.2 km/h 12.2 km/h 85% 0.0 mm 0 W/m2
08:43 12.0 °C 9.6 °C 1030.0 hPa West 12.2 km/h 14.8 km/h 85% 0.0 mm 0 W/m2
08:48 12.0 °C 9.6 °C 1030.0 hPa West 9.7 km/h 14.8 km/h 85% 0.0 mm 0 W/m2
08:53 12.0 °C 9.6 °C 1030.0 hPa West 2.6 km/h 14.8 km/h 85% 0.0 mm 0 W/m2
08:58 12.0 °C 9.6 °C 1030.0 hPa West 5.0 km/h 12.2 km/h 85% 0.0 mm 0 W/m2
09:03 12.0 °C 9.6 °C 1030.0 hPa West 6.1 km/h 14.8 km/h 85% 0.0 mm 0 W/m2
09:08 12.0 °C 9.6 °C 1030.0 hPa West 2.6 km/h 14.8 km/h 85% 0.0 mm 0 W/m2
09:13 11.9 °C 9.6 °C 1030.0 hPa West 1.1 km/h 8.7 km/h 86% 0.0 mm 0 W/m2
09:18 11.9 °C 9.6 °C 1030.0 hPa West 7.2 km/h 8.7 km/h 86% 0.0 mm 0 W/m2
09:23 11.9 °C 9.6 °C 1030.0 hPa West 3.5 km/h 8.7 km/h 86% 0.0 mm 0 W/m2
09:28 11.8 °C 9.4 °C 1030.0 hPa West 6.1 km/h 9.7 km/h 85% 0.0 mm 0 W/m2
09:33 11.8 °C 9.4 °C 1030.0 hPa West 1.1 km/h 9.7 km/h 85% 0.0 mm 0 W/m2
09:38 11.8 °C 9.6 °C 1030.0 hPa West 5.0 km/h 9.7 km/h 86% 0.0 mm 0 W/m2
09:43 11.9 °C 9.4 °C 1030.0 hPa West 5.0 km/h 9.7 km/h 85% 0.0 mm 0 W/m2
09:48 11.9 °C 9.4 °C 1030.0 hPa West 5.0 km/h 9.7 km/h 85% 0.0 mm 0 W/m2
09:53 11.9 °C 9.4 °C 1030.4 hPa WNW 5.0 km/h 9.7 km/h 85% 0.0 mm 0 W/m2
09:58 11.9 °C 9.4 °C 1030.0 hPa West 7.2 km/h 9.7 km/h 85% 0.0 mm 0 W/m2
10:03 11.9 °C 9.4 °C 1030.4 hPa WSW 7.2 km/h 15.8 km/h 85% 0.0 mm 0 W/m2
10:08 11.9 °C 9.4 °C 1030.0 hPa West 9.7 km/h 15.8 km/h 85% 0.0 mm 0 W/m2
10:13 11.9 °C 9.4 °C 1030.4 hPa West 7.2 km/h 13.4 km/h 85% 0.0 mm 0 W/m2
10:18 11.9 °C 9.6 °C 1030.0 hPa WSW 7.2 km/h 12.2 km/h 86% 0.0 mm 0 W/m2
10:23 11.9 °C 9.6 °C 1030.0 hPa SW 8.7 km/h 15.8 km/h 86% 0.0 mm 0 W/m2
10:28 11.9 °C 9.6 °C 1030.4 hPa WSW 7.2 km/h 19.5 km/h 86% 0.0 mm 0 W/m2
10:33 11.9 °C 9.6 °C 1030.0 hPa West 5.0 km/h 19.5 km/h 86% 0.0 mm 0 W/m2
10:38 11.9 °C 9.6 °C 1030.4 hPa WSW 6.1 km/h 15.8 km/h 86% 0.0 mm 0 W/m2
10:43 11.9 °C 9.6 °C 1030.4 hPa WSW 2.6 km/h 15.8 km/h 86% 0.0 mm 0 W/m2
10:48 11.9 °C 9.8 °C 1030.4 hPa West 6.1 km/h 11.1 km/h 87% 0.0 mm 0 W/m2
10:53 11.8 °C 9.7 °C 1030.0 hPa West 6.1 km/h 11.1 km/h 87% 0.0 mm 0 W/m2
10:58 11.8 °C 9.7 °C 1030.0 hPa WSW 8.7 km/h 12.2 km/h 87% 0.0 mm 0 W/m2
11:03 11.8 °C 9.7 °C 1030.0 hPa WSW 5.0 km/h 12.2 km/h 87% 0.0 mm 0 W/m2
11:08 11.8 °C 9.7 °C 1030.0 hPa WSW 14.8 km/h 20.9 km/h 87% 0.0 mm 0 W/m2
11:13 11.7 °C 9.9 °C 1030.0 hPa WSW 13.4 km/h 20.9 km/h 89% 0.0 mm 0 W/m2
11:18 11.7 °C 10.1 °C 1030.0 hPa West 3.5 km/h 20.9 km/h 90% 0.0 mm 0 W/m2
11:23 11.6 °C 10.2 °C 1030.0 hPa WSW 6.1 km/h 14.8 km/h 91% 0.0 mm 0 W/m2
11:28 11.6 °C 10.2 °C 1030.0 hPa WSW 7.2 km/h 17.2 km/h 91% 0.0 mm 0 W/m2
11:33 11.6 °C 10.2 °C 1030.0 hPa WSW 6.1 km/h 17.2 km/h 91% 0.0 mm 0 W/m2
11:38 11.6 °C 10.2 °C 1030.0 hPa WSW 7.2 km/h 14.8 km/h 91% 0.0 mm 0 W/m2
11:43 11.6 °C 10.2 °C 1030.0 hPa WSW 7.2 km/h 13.4 km/h 91% 0.0 mm 0 W/m2
11:48 11.5 °C 10.1 °C 1030.0 hPa West 6.1 km/h 12.2 km/h 91% 0.0 mm 0 W/m2
11:53 11.5 °C 9.9 °C 1030.0 hPa West 3.5 km/h 14.8 km/h 90% 0.0 mm 0 W/m2
11:58 11.5 °C 9.9 °C 1030.0 hPa WSW 2.6 km/h 14.8 km/h 90% 0.0 mm 0 W/m2
12:03 11.5 °C 9.9 °C 1030.0 hPa WNW 2.6 km/h 7.2 km/h 90% 0.0 mm 0 W/m2
12:08 11.4 °C 9.8 °C 1030.0 hPa WNW 3.5 km/h 11.1 km/h 90% 0.0 mm 0 W/m2
12:13 11.4 °C 9.7 °C 1030.0 hPa West 3.5 km/h 11.1 km/h 89% 0.0 mm 0 W/m2
12:18 11.4 °C 9.7 °C 1030.0 hPa West 3.5 km/h 11.1 km/h 89% 0.0 mm 0 W/m2
12:23 11.4 °C 9.7 °C 1030.0 hPa WSW 6.1 km/h 11.1 km/h 89% 0.0 mm 0 W/m2
12:28 11.5 °C 9.8 °C 1030.0 hPa West 9.7 km/h 12.2 km/h 89% 0.0 mm 0 W/m2
12:33 11.5 °C 9.6 °C 1030.0 hPa WSW 9.7 km/h 14.8 km/h 88% 0.0 mm 0 W/m2
12:39 11.5 °C 9.6 °C 1030.0 hPa WSW 7.2 km/h 14.8 km/h 88% 0.0 mm 0 W/m2
12:44 11.5 °C 9.8 °C 1030.0 hPa WSW 5.0 km/h 12.2 km/h 89% 0.0 mm 0 W/m2
12:49 11.4 °C 9.8 °C 1030.0 hPa WSW 9.7 km/h 12.2 km/h 90% 0.0 mm 0 W/m2
12:54 11.2 °C 9.8 °C 1030.0 hPa WSW 9.7 km/h 14.8 km/h 91% 0.0 mm 0 W/m2
12:59 11.0 °C 9.8 °C 1030.0 hPa West 11.1 km/h 17.2 km/h 92% 0.0 mm 0 W/m2
13:04 10.9 °C 10.0 °C 1030.0 hPa West 7.2 km/h 17.2 km/h 94% 0.0 mm 0 W/m2
13:09 10.7 °C 9.9 °C 1030.0 hPa West 2.6 km/h 15.8 km/h 95% 0.0 mm 0 W/m2
13:14 10.6 °C 10.0 °C 1030.0 hPa WSW 1.1 km/h 12.2 km/h 96% 0.0 mm 0 W/m2
13:19 10.5 °C 10.1 °C 1030.0 hPa West 1.1 km/h 11.1 km/h 97% 0.0 mm 0 W/m2
13:24 10.4 °C 9.9 °C 1030.0 hPa NW 2.6 km/h 7.2 km/h 97% 0.0 mm 0 W/m2
13:30 10.4 °C 9.9 °C 1030.0 hPa NNW 1.1 km/h 7.2 km/h 97% 0.0 mm 0 W/m2
13:35 10.4 °C 10.1 °C 1030.4 hPa NNW 2.6 km/h 7.2 km/h 98% 0.0 mm 0 W/m2
13:40 10.4 °C 10.1 °C 1030.0 hPa NNW 1.1 km/h 7.2 km/h 98% 0.0 mm 0 W/m2
13:45 10.4 °C 10.1 °C 1030.0 hPa NNW 1.1 km/h 7.2 km/h 98% 0.0 mm 0 W/m2
13:50 10.4 °C 10.1 °C 1030.4 hPa NNW 1.1 km/h 6.1 km/h 98% 0.0 mm 0 W/m2
13:55 10.3 °C 10.0 °C 1030.0 hPa NNW 1.1 km/h 6.1 km/h 98% 0.0 mm 0 W/m2
14:00 10.3 °C 10.2 °C 1030.4 hPa North 2.6 km/h 6.1 km/h 99% 0.0 mm 0 W/m2
14:05 10.3 °C 10.2 °C 1030.4 hPa North 3.5 km/h 5.0 km/h 99% 0.0 mm 0 W/m2
14:10 10.3 °C 10.2 °C 1030.4 hPa North 3.5 km/h 6.1 km/h 99% 0.0 mm 0 W/m2
14:15 10.2 °C 10.1 °C 1030.4 hPa NNE 1.1 km/h 6.1 km/h 99% 0.0 mm 0 W/m2
14:20 10.2 °C 10.1 °C 1030.4 hPa North 5.0 km/h 7.2 km/h 99% 0.0 mm 0 W/m2
14:25 10.1 °C 9.9 °C 1030.4 hPa North 5.0 km/h 8.7 km/h 99% 0.3 mm 0 W/m2
14:30 10.0 °C 9.8 °C 1030.4 hPa North 6.1 km/h 8.7 km/h 99% 0.3 mm 0 W/m2
14:35 10.0 °C 9.8 °C 1030.4 hPa NNW 6.1 km/h 8.7 km/h 99% 0.3 mm 0 W/m2
14:51 9.9 °C 9.8 °C 1030.4 hPa NNW 3.5 km/h 7.2 km/h 99% 0.3 mm 0 W/m2
14:56 9.8 °C 9.7 °C 1030.7 hPa NNW 3.5 km/h 7.2 km/h 99% 0.3 mm 0 W/m2
15:01 9.8 °C 9.7 °C 1030.4 hPa NNW 2.6 km/h 7.2 km/h 99% 0.3 mm 0 W/m2
15:05 9.8 °C 9.7 °C 1030.4 hPa NNW 5.0 km/h 7.2 km/h 99% 0.3 mm 0 W/m2
15:10 9.8 °C 9.7 °C 1030.7 hPa North 5.0 km/h 9.7 km/h 99% 0.3 mm 0 W/m2
15:15 9.8 °C 9.7 °C 1030.7 hPa North 2.6 km/h 9.7 km/h 99% 0.3 mm 0 W/m2
15:20 9.8 °C 9.7 °C 1030.7 hPa NNW 3.5 km/h 7.2 km/h 99% 0.3 mm 0 W/m2
15:25 9.8 °C 9.7 °C 1030.7 hPa NNW 3.5 km/h 7.2 km/h 99% 0.0 mm 0 W/m2
15:30 9.8 °C 9.7 °C 1030.7 hPa NNW 5.0 km/h 7.2 km/h 99% 0.0 mm 0 W/m2
15:35 9.8 °C 9.7 °C 1030.7 hPa North 2.6 km/h 7.2 km/h 99% 0.0 mm 0 W/m2
15:40 9.8 °C 9.7 °C 1031.0 hPa North 6.1 km/h 9.7 km/h 99% 0.0 mm 0 W/m2
15:45 9.8 °C 9.7 °C 1031.0 hPa NNW 5.0 km/h 9.7 km/h 99% 0.0 mm 2 W/m2
15:50 9.8 °C 9.7 °C 1030.7 hPa NNW 5.0 km/h 9.7 km/h 99% 0.0 mm 4 W/m2
15:55 9.8 °C 9.7 °C 1030.7 hPa NNW 5.0 km/h 9.7 km/h 99% 0.0 mm 6 W/m2
16:00 9.8 °C 9.7 °C 1031.0 hPa NNW 5.0 km/h 8.7 km/h 99% 0.0 mm 8 W/m2
16:05 9.8 °C 9.7 °C 1031.0 hPa NNW 3.5 km/h 8.7 km/h 99% 0.0 mm 13 W/m2
16:11 9.9 °C 9.8 °C 1031.0 hPa North 5.0 km/h 8.7 km/h 99% 0.0 mm 18 W/m2
16:16 9.9 °C 9.8 °C 1031.0 hPa NNW 6.1 km/h 9.7 km/h 99% 0.0 mm 23 W/m2
16:21 10.0 °C 9.8 °C 1031.0 hPa North 5.0 km/h 9.7 km/h 99% 0.0 mm 27 W/m2
16:26 10.0 °C 9.8 °C 1031.0 hPa North 8.7 km/h 9.7 km/h 99% 0.0 mm 27 W/m2
16:31 10.1 °C 9.9 °C 1031.0 hPa North 3.5 km/h 9.7 km/h 99% 0.0 mm 32 W/m2
16:36 10.1 °C 9.9 °C 1031.0 hPa North 3.5 km/h 9.7 km/h 99% 0.0 mm 45 W/m2
16:41 10.3 °C 10.2 °C 1031.0 hPa NNW 3.5 km/h 9.7 km/h 99% 0.0 mm 50 W/m2
16:46 10.3 °C 10.2 °C 1031.0 hPa NNW 3.5 km/h 9.7 km/h 99% 0.0 mm 50 W/m2
16:51 10.4 °C 10.3 °C 1031.0 hPa North 3.5 km/h 9.7 km/h 99% 0.0 mm 57 W/m2
16:56 10.5 °C 10.3 °C 1031.0 hPa North 2.6 km/h 8.7 km/h 99% 0.0 mm 53 W/m2
17:01 10.5 °C 10.3 °C 1031.0 hPa North 3.5 km/h 8.7 km/h 99% 0.0 mm 54 W/m2
17:06 10.6 °C 10.4 °C 1031.0 hPa North 6.1 km/h 8.7 km/h 99% 0.0 mm 57 W/m2
17:11 10.6 °C 10.4 °C 1031.0 hPa North 3.5 km/h 8.7 km/h 99% 0.0 mm 61 W/m2
17:16 10.7 °C 10.6 °C 1031.4 hPa NNW 3.5 km/h 8.7 km/h 99% 0.0 mm 67 W/m2
17:21 10.9 °C 10.8 °C 1031.4 hPa North 5.0 km/h 8.7 km/h 99% 0.3 mm 71 W/m2
17:26 10.9 °C 10.8 °C 1031.4 hPa North 5.0 km/h 9.7 km/h 99% 0.3 mm 77 W/m2
17:31 11.0 °C 10.7 °C 1031.4 hPa North 6.1 km/h 11.1 km/h 98% 0.3 mm 88 W/m2
17:36 11.0 °C 10.7 °C 1031.0 hPa North 2.6 km/h 11.1 km/h 98% 0.3 mm 92 W/m2
17:41 11.3 °C 11.0 °C 1031.4 hPa North 3.5 km/h 9.7 km/h 98% 0.3 mm 99 W/m2
17:46 11.4 °C 11.1 °C 1031.4 hPa NNW 5.0 km/h 8.7 km/h 98% 0.3 mm 97 W/m2
17:51 11.5 °C 11.2 °C 1031.4 hPa NNW 5.0 km/h 12.2 km/h 98% 0.3 mm 101 W/m2
17:56 11.5 °C 11.2 °C 1031.4 hPa North 5.0 km/h 12.2 km/h 98% 0.3 mm 101 W/m2
18:01 11.6 °C 11.3 °C 1031.4 hPa North 3.5 km/h 12.2 km/h 98% 0.3 mm 123 W/m2
18:06 11.8 °C 11.5 °C 1031.4 hPa North 5.0 km/h 9.7 km/h 98% 0.3 mm 128 W/m2
18:11 12.0 °C 11.4 °C 1031.4 hPa North 6.1 km/h 11.1 km/h 96% 0.3 mm 123 W/m2
18:16 12.1 °C 11.3 °C 1031.4 hPa North 7.2 km/h 11.1 km/h 95% 0.3 mm 131 W/m2
18:21 12.1 °C 11.2 °C 1031.4 hPa North 6.1 km/h 11.1 km/h 94% 0.0 mm 133 W/m2
18:26 12.4 °C 11.3 °C 1031.4 hPa North 5.0 km/h 11.1 km/h 93% 0.0 mm 125 W/m2
18:31 12.2 °C 10.9 °C 1031.4 hPa NNW 3.5 km/h 8.7 km/h 92% 0.0 mm 121 W/m2
18:36 12.5 °C 11.2 °C 1031.4 hPa NNW 3.5 km/h 8.7 km/h 92% 0.0 mm 117 W/m2
18:53 12.7 °C 11.3 °C 1031.0 hPa Calm   7.2 km/h 91% 0.0 mm 112 W/m2
18:58 12.8 °C 11.4 °C 1031.0 hPa NNE 1.1 km/h 6.1 km/h 91% 0.0 mm 113 W/m2
19:03 12.8 °C 11.4 °C 1030.7 hPa North 2.6 km/h 6.1 km/h 91% 0.0 mm 116 W/m2
19:08 12.9 °C 11.4 °C 1030.7 hPa NNW 2.6 km/h 5.0 km/h 91% 0.0 mm 134 W/m2
19:13 13.2 °C 11.6 °C 1030.7 hPa North 2.6 km/h 6.1 km/h 90% 0.0 mm 154 W/m2
19:18 13.6 °C 11.8 °C 1030.7 hPa NNW 1.1 km/h 6.1 km/h 89% 0.0 mm 167 W/m2
19:23 13.7 °C 11.8 °C 1030.7 hPa NW 1.1 km/h 7.2 km/h 88% 0.0 mm 173 W/m2
19:28 13.7 °C 11.6 °C 1030.7 hPa NNW 5.0 km/h 7.2 km/h 87% 0.0 mm 173 W/m2
19:33 14.0 °C 11.7 °C 1030.4 hPa NNW 1.1 km/h 6.1 km/h 86% 0.0 mm 171 W/m2
19:38 14.1 °C 11.6 °C 1030.4 hPa NW 1.1 km/h 6.1 km/h 85% 0.0 mm 174 W/m2
19:43 14.4 °C 11.9 °C 1030.4 hPa NW 1.1 km/h 5.0 km/h 85% 0.0 mm 189 W/m2
19:48 15.4 °C 12.7 °C 1030.4 hPa WNW 3.5 km/h 6.1 km/h 84% 0.0 mm 138 W/m2
19:53 15.4 °C 12.2 °C 1030.4 hPa NW 2.6 km/h 6.1 km/h 81% 0.0 mm 119 W/m2
19:58 15.9 °C 12.7 °C 1030.4 hPa NNW 1.1 km/h 6.1 km/h 81% 0.0 mm 143 W/m2
20:03 17.0 °C 12.7 °C 1030.4 hPa NNE 6.1 km/h 8.7 km/h 76% 0.0 mm 143 W/m2
20:08 16.7 °C 12.1 °C 1030.4 hPa North 2.6 km/h 8.7 km/h 74% 0.0 mm 132 W/m2
20:13 16.5 °C 11.8 °C 1030.4 hPa NNW 2.6 km/h 8.7 km/h 74% 0.0 mm 127 W/m2
20:18 17.3 °C 12.2 °C 1030.0 hPa West 1.1 km/h 7.2 km/h 72% 0.0 mm 101 W/m2
20:23 18.3 °C 12.7 °C 1030.0 hPa East 5.0 km/h 6.1 km/h 70% 0.0 mm 110 W/m2
20:28 17.5 °C 11.6 °C 1030.0 hPa East 3.5 km/h 6.1 km/h 68% 0.0 mm 85 W/m2
20:33 16.5 °C 11.4 °C 1030.0 hPa SE 3.5 km/h 8.7 km/h 72% 0.0 mm 77 W/m2
20:38 16.5 °C 12.1 °C 1030.0 hPa SE 3.5 km/h 8.7 km/h 75% 0.0 mm 84 W/m2
20:43 17.0 °C 12.1 °C 1030.0 hPa SSE 5.0 km/h 7.2 km/h 73% 0.0 mm 80 W/m2
20:48 17.2 °C 12.1 °C 1030.0 hPa SE 2.6 km/h 8.7 km/h 72% 0.0 mm 82 W/m2
20:53 17.0 °C 11.9 °C 1030.0 hPa SSE 5.0 km/h 8.7 km/h 72% 0.0 mm 80 W/m2
20:58 16.0 °C 11.4 °C 1029.7 hPa SSE 1.1 km/h 8.7 km/h 74% 0.0 mm 92 W/m2
21:03 16.0 °C 12.0 °C 1029.7 hPa SSE 6.1 km/h 7.2 km/h 77% 0.0 mm 106 W/m2
21:08 16.5 °C 12.3 °C 1029.7 hPa SSE 5.0 km/h 8.7 km/h 76% 0.0 mm 94 W/m2
21:13 15.5 °C 11.3 °C 1029.7 hPa SSE 3.5 km/h 8.7 km/h 76% 0.0 mm 128 W/m2
21:18 15.2 °C 11.6 °C 1029.7 hPa South 5.0 km/h 9.7 km/h 79% 0.0 mm 142 W/m2
21:23 15.4 °C 12.0 °C 1029.7 hPa South 5.0 km/h 9.7 km/h 80% 0.0 mm 152 W/m2
21:28 15.4 °C 11.8 °C 1029.7 hPa SSE 6.1 km/h 8.7 km/h 79% 0.0 mm 137 W/m2
21:33 15.6 °C 11.8 °C 1029.7 hPa SE 3.5 km/h 8.7 km/h 78% 0.0 mm 131 W/m2
21:38 15.8 °C 11.6 °C 1029.7 hPa SSE 2.6 km/h 8.7 km/h 76% 0.0 mm 129 W/m2
21:43 15.3 °C 11.1 °C 1029.7 hPa SE 3.5 km/h 8.7 km/h 76% 0.0 mm 143 W/m2
21:48 15.4 °C 11.6 °C 1029.3 hPa SE 1.1 km/h 8.7 km/h 78% 0.0 mm 154 W/m2
21:53 15.6 °C 11.8 °C 1029.3 hPa SE 2.6 km/h 8.7 km/h 78% 0.0 mm 146 W/m2
21:58 16.2 °C 11.8 °C 1029.7 hPa SE 3.5 km/h 8.7 km/h 75% 0.0 mm 142 W/m2
22:03 15.9 °C 11.7 °C 1029.7 hPa SE 5.0 km/h 7.2 km/h 76% 0.0 mm 238 W/m2
22:08 16.1 °C 11.9 °C 1029.3 hPa SE 5.0 km/h 7.2 km/h 76% 0.0 mm 127 W/m2
22:13 15.6 °C 11.4 °C 1029.3 hPa SE 3.5 km/h 7.2 km/h 76% 0.0 mm 120 W/m2
22:18 15.2 °C 11.2 °C 1029.3 hPa SE 2.6 km/h 7.2 km/h 77% 0.0 mm 133 W/m2
22:23 15.7 °C 11.9 °C 1029.3 hPa SE 2.6 km/h 7.2 km/h 78% 0.0 mm 240 W/m2
22:28 16.7 °C 12.4 °C 1029.3 hPa ESE 3.5 km/h 7.2 km/h 76% 0.0 mm 248 W/m2
22:33 17.0 °C 11.9 °C 1029.3 hPa SE 3.5 km/h 8.7 km/h 72% 0.0 mm 253 W/m2
22:38 16.1 °C 11.4 °C 1029.0 hPa SSE 5.0 km/h 9.7 km/h 74% 0.0 mm 162 W/m2
22:43 15.6 °C 11.6 °C 1029.3 hPa SSE 5.0 km/h 9.7 km/h 77% 0.0 mm 237 W/m2
22:48 15.7 °C 11.9 °C 1029.3 hPa SSE 3.5 km/h 8.7 km/h 78% 0.0 mm 151 W/m2
22:53 15.8 °C 12.0 °C 1029.7 hPa SSE 5.0 km/h 8.7 km/h 78% 0.0 mm 130 W/m2
22:58 15.1 °C 11.3 °C 1029.3 hPa SE 5.0 km/h 8.7 km/h 78% 0.0 mm 82 W/m2
23:03 14.6 °C 11.6 °C 1029.3 hPa SE 2.6 km/h 7.2 km/h 82% 0.0 mm 86 W/m2
23:08 14.4 °C 11.6 °C 1029.3 hPa SE 2.6 km/h 8.7 km/h 83% 0.0 mm 87 W/m2
23:13 14.2 °C 11.6 °C 1029.7 hPa SE 5.0 km/h 8.7 km/h 84% 0.0 mm 88 W/m2
23:18 14.3 °C 11.6 °C 1029.7 hPa ESE 3.5 km/h 8.7 km/h 84% 0.0 mm 182 W/m2
23:23 14.7 °C 12.1 °C 1029.3 hPa SSE 8.7 km/h 11.1 km/h 84% 0.0 mm 104 W/m2
23:28 15.3 °C 12.4 °C 1029.3 hPa SE 5.0 km/h 11.1 km/h 83% 0.0 mm 157 W/m2
23:33 15.8 °C 12.6 °C 1029.3 hPa East 7.2 km/h 11.1 km/h 81% 0.0 mm 143 W/m2
23:38 15.4 °C 11.6 °C 1029.3 hPa East 6.1 km/h 9.7 km/h 78% 0.0 mm 127 W/m2
23:43 15.3 °C 11.7 °C 1029.3 hPa ESE 6.1 km/h 9.7 km/h 79% 0.0 mm 107 W/m2
23:49 15.1 °C 11.7 °C 1029.3 hPa ESE 9.7 km/h 12.2 km/h 80% 0.0 mm 93 W/m2
23:59 14.0 °C 11.3 °C 1029.3 hPa East 9.7 km/h 15.8 km/h 84% 0.0 mm 65 W/m2
Northern Hawkes Bay. New Zealand Historic Data
Compliments of Weather Underground - 2 mb